Accueil
METAR-TAF:

METAR-TAF

Aéroports :

Aéroport international de Hohhot Baita

Hohhot, Chine

latitude: 40-49N, longitude: 111-41E, altitude: 1065 m

Observation

Le bulletin a été fait il y a 38 minutes, à 20:00 UTC
Vent 6 kt de est/nord-est
Température 3°C
Humidité 81%
Pression 1012 hPa
Visibilité 10 km ou plus
pas de nuages en-dessous de 1500 mètres et pas de cumulonimbus.

METAR: ZBHH 202000Z 07003MPS CAVOK 03/M00 Q1012 NOSIG

Heure: 04:38 (20:38 UTC)

Prévision

Le bulletin a été fait il y a 5 heures et 37 minutes, à 15:01 UTC
Prévision valable du 20 à 18 UTC au 21 à 18 UTC
Vent 8 kt de sud-ouest
Visibilité 10 km ou plus
Quelques nuages à une hauteur de 4000 ft
Temporairement
du 21 à 10 UTC au 21 à 14 UTC
Quelques nuages à une hauteur de 4000 ft, Cumulonimbus.
Quelques nuages à une hauteur de 4000 ft

TAF: ZBHH 201501Z 2018/2118 23004MPS 9999 FEW040 TX24/2107Z TN04/2022Z TEMPO 2110/2114 FEW040CB FEW040

Observations et prévisions météorologiques de plus de 4000 aéroports (messages METAR et TAF).

Les stations disponibles sont représentées par des disques jaunes et rouges sur la carte.

Passer la souris dessus pour voir le nom de la station.

Cliquer dessus pour voir les observations et prévisions météorologiques.

Pour changer de carte: cliquez sur les boutons verts avec une croix noire pour zoomer, sur le bouton vert avec un tiret pour effectuer un zoom arrière, ou sur les flèches vertes pour les cartes adjacentes.


METAR-TAF: